METAR v bližini

 

LJLJ - Ljubljana/Brnik, Slovenia
Oddaljenost od postaje: W 41km
Podatki zajeti: 07/12/2022 04:30
Pretežno oblačno
Pretežno oblačno
 Veter iz smeri NW
Veter: NW 7 km/h
Temperatura: 3°C
Občutek mraza zaradi vetra: 1°C
Rosišče: 1°C
Vlažnost: 87%
Tlak: 1014 hPa
Oblačnost: Pretežno oblačno
Vidljivost: 10 km
Podrobnosti o oblakih: Pretežno oblačno 914 m
2022/12/07 03:30 LJLJ 070330Z 31004KT 9999 BKN030 03/01 Q1014 NOSIG
LJMB - Maribor, Slovenia
Oddaljenost od postaje: NE 63km
Podatki zajeti: 07/12/2022 04:30
Megla ki zmrzuje, Oblačno
Megla ki zmrzuje, Oblačno
 Veter iz smeri spremenljiv
Veter: spremenljiv 2 km/h
Temperatura: -2°C
Rosišče: -2°C
Vlažnost: 100%
Stanje: Megla ki zmrzuje
Oblačnost: Oblačno
Vidljivost: 0 km
Podrobnosti o oblakih: Oblačno 61 m
2022/12/07 03:30 LJMB 070330Z AUTO VRB01KT 0100 R32/0400 FZFG OVC002/// M02/M02 Q1
 
LJPZ - Portoroz, Slovenia
Oddaljenost od postaje: SW 130km
Podatki zajeti: 07/12/2022 04:30
Pretežno oblačno
Pretežno oblačno
 Veter iz smeri ESE
Veter: ESE 6 km/h
Temperatura: 6°C
Rosišče: 6°C
Vlažnost: 100%
Tlak: 1012 hPa
Oblačnost: Pretežno oblačno
Vidljivost: 9 km
Podrobnosti o oblakih: Pretežno oblačno 701 m
2022/12/07 03:30 LJPZ 070330Z AUTO 11003KT 9000 BKN023/// 06/06 Q1012
LJCE - Cerklje, Slovenia
Oddaljenost od postaje: ESE 49km
Podatki zajeti: 07/12/2022 04:30
Megla, Oblačno
Megla, Oblačno
 Veter iz smeri spremenljiv
Veter: spremenljiv 2 km/h
Temperatura: 3°C
Rosišče: 2°C
Vlažnost: 93%
Tlak: 1015 hPa
Stanje: Megla
Oblačnost: Oblačno
Vidljivost: 0 km
Podrobnosti o oblakih: Pretežno oblačno 122 m
Oblačno 1067 m
2022/12/07 03:30 LJCE 070330Z AUTO VRB01KT 0150 R09///// FG BKN004/// OVC035/// 03/02 Q1015
 
LDZA - Zagreb/Pleso, Croatia
Oddaljenost od postaje: ESE 96km
Podatki zajeti: 07/12/2022 04:30
Meglica, Oblačno
Meglica, Oblačno
 Veter iz smeri spremenljiv
Veter: spremenljiv 2 km/h
Temperatura: 3°C
Rosišče: 2°C
Vlažnost: 93%
Tlak: 1014 hPa
Stanje: Meglica
Oblačnost: Oblačno
Vidljivost: 4 km
Podrobnosti o oblakih: Oblačno 549 m
2022/12/07 03:30 LDZA 070330Z VRB01KT 4000 BR OVC018 03/02 Q1014 TEMPO 2000
LDRI - Rijeka/Omisalj, Croatia
Oddaljenost od postaje: SSW 109km
Podatki zajeti: 07/12/2022 04:30
Pretežno oblačno
Pretežno oblačno
 Veter iz smeri E
Veter: E 6 km/h
Temperatura: 10°C
Rosišče: 5°C
Vlažnost: 71%
Tlak: 1012 hPa
Oblačnost: Pretežno oblačno
Vidljivost: 10 km
Podrobnosti o oblakih: Rahlo oblačno 914 m
Pretežno oblačno 1219 m
2022/12/07 03:30 LDRI 070330Z 09003KT 040V120 9999 FEW030 BKN040 10/05 Q1012
 
LDPL - Pula, Croatia
Oddaljenost od postaje: SSW 164km
Podatki zajeti: 07/12/2022 04:30
Oblačno
Oblačno
 Veter iz smeri NE
Veter: NE 6 km/h
Temperatura: 10°C
Rosišče: 8°C
Vlažnost: 88%
Tlak: 1012 hPa
Oblačnost: Oblačno
Vidljivost: 10 km
Podrobnosti o oblakih: Pretežno oblačno 518 m
Oblačno 701 m
2022/12/07 03:30 LDPL 070330Z 04003KT 9999 BKN017 OVC023 10/08 Q1012
LOWK - Klagenfurt(Civ/M, Austria
Oddaljenost od postaje: NW 76km
Podatki zajeti: 07/12/2022 04:20
Pretežno oblačno
Pretežno oblačno
 Veter iz smeri spremenljiv
Veter: spremenljiv 4 km/h
Temperatura: 2°C
Rosišče: 1°C
Vlažnost: 93%
Tlak: 1015 hPa
Oblačnost: Pretežno oblačno
Vidljivost: 10 km
Podrobnosti o oblakih: Rahlo oblačno 488 m
Pretežno oblačno 610 m
2022/12/07 03:20 LOWK 070320Z AUTO VRB02KT 9999 FEW016 BKN020 02/01 Q1015
 
LOWG - Graz (mil/Civ), Austria
Oddaljenost od postaje: NNE 100km
Podatki zajeti: 07/12/2022 04:20
Megla, Oblačno
Megla, Oblačno
 Veter iz smeri W
Veter: W 6 km/h
Temperatura: 0°C
Rosišče: 0°C
Vlažnost: 100%
Tlak: 1014 hPa
Stanje: Megla
Oblačnost: Oblačno
Vidljivost: 1 km
Podrobnosti o oblakih: Rahlo oblačno 30 m
Oblačno 61 m
2022/12/07 03:20 LOWG 070320Z AUTO 26003KT 220V290 0500 R16/0600N R34/0550N FG FEW001 OVC002 M00/M00 Q1014
LOAN - Wr.neustadt East, Austria
Oddaljenost od postaje: NNE 212km
Podatki zajeti: 06/12/2022 16:00
Ni posodobljen
Pretežno oblačno
Pretežno oblačno
 Veter iz smeri NNW
Veter: NNW 9 km/h
Oblačnost: Pretežno oblačno
Vidljivost: 10 km
Podrobnosti o oblakih: Pretežno oblačno 1524 m
2022/12/06 15:00 LOAN 061500Z 33005KT 9999 BKN050
 
LIPQ - Ronchi Legionari, Italy
Oddaljenost od postaje: SW 35km
Podatki zajeti: 07/12/2022 04:20
Pretežno oblačno
Pretežno oblačno
 Veter iz smeri N
Veter: N 6 km/h
Temperatura: 3°C
Rosišče: 3°C
Vlažnost: 100%
Tlak: 1013 hPa
Oblačnost: Pretežno oblačno
Vidljivost: 10 km
Podrobnosti o oblakih: Pretežno oblačno 1097 m
Pretežno oblačno 7315 m
2022/12/07 03:20 LIPQ 070320Z AUTO 35003KT 9999 BKN036/// BKN240/// 03/03 Q1013
LIVT - Trieste, Italy
Oddaljenost od postaje: WSW 109km
Podatki zajeti: 07/12/2022 03:55

 Veter iz smeri E
Veter: E 11 km/h
Temperatura: 8°C
Občutek mraza zaradi vetra: 6°C
Rosišče: 4°C
Vlažnost: 76%
Tlak: 1012 hPa
2022/12/07 02:55 LIVT 070255Z AUTO 08006KT 020V150 //// 08/04 Q1012
 
LIVO - Tarvisio, Italy
Oddaljenost od postaje: NNW 49km
Podatki zajeti: 06/12/2022 18:55
Ni posodobljen
Megla, Oblačno
Megla, Oblačno
 Veter iz smeri calm
Veter: Calm
Temperatura: 0°C
Rosišče: -2°C
Vlažnost: 87%
Tlak: 1014 hPa
Stanje: Megla
Oblačnost: Oblačno
Vidljivost: 1 km
Podrobnosti o oblakih: Oblačno 457 m
2022/12/06 17:55 LIVO 061755Z 00000KT 0800 FG OVC015 00/M02 Q1014
LIPZ - Venezia/Tessera, Italy
Oddaljenost od postaje: WSW 217km
Podatki zajeti: 07/12/2022 04:20
Delno oblačno
Delno oblačno
 Veter iz smeri NW
Veter: NW 7 km/h
Temperatura: 3°C
Občutek mraza zaradi vetra: 1°C
Rosišče: 3°C
Vlažnost: 100%
Tlak: 1013 hPa
Oblačnost: Delno oblačno
Vidljivost: 6 km
2022/12/07 03:20 LIPZ 070320Z 32004KT 6000 NSC 03/03 Q1013 NOSIG
 
LHSM - Balaton, Hungary
Oddaljenost od postaje: ENE 177km
Podatki zajeti: 07/12/2022 04:15
Megla, Oblačno
Megla, Oblačno
 Veter iz smeri spremenljiv
Veter: spremenljiv 2 km/h
Temperatura: 0°C
Rosišče: 0°C
Vlažnost: 100%
Tlak: 1015 hPa
Stanje: Megla
Oblačnost: Oblačno
Vidljivost: 1 km
Podrobnosti o oblakih: Oblačno 61 m
2022/12/07 03:15 LHSM 070315Z AUTO VRB01KT 0650 FG VV002 00/00 Q1015